createdAt,value
2023-05-08T00:00:23.102Z,15.80
2023-05-08T00:02:54.894Z,15.80
2023-05-08T00:05:23.589Z,15.80
2023-05-08T00:07:52.316Z,15.80
2023-05-08T00:10:21.026Z,15.80
2023-05-08T00:12:50.396Z,15.70
2023-05-08T00:15:18.461Z,15.70
2023-05-08T00:17:48.142Z,15.70
2023-05-08T00:20:16.476Z,15.70
2023-05-08T00:22:44.509Z,15.70
2023-05-08T00:25:14.040Z,15.70
2023-05-08T00:27:42.367Z,15.70
2023-05-08T00:30:11.572Z,15.70
2023-05-08T00:32:39.927Z,15.60
2023-05-08T00:35:10.073Z,15.60
2023-05-08T00:37:40.720Z,15.60
2023-05-08T00:40:10.343Z,15.50
2023-05-08T00:42:38.652Z,15.50
2023-05-08T00:45:07.709Z,15.40
2023-05-08T00:47:36.492Z,15.40
2023-05-08T00:50:06.053Z,15.40
2023-05-08T00:52:35.728Z,15.30
2023-05-08T00:55:05.877Z,15.40
2023-05-08T00:57:35.829Z,15.40
2023-05-08T01:00:05.645Z,15.50
2023-05-08T01:02:34.917Z,15.50
2023-05-08T01:05:04.512Z,15.70
2023-05-08T01:07:33.415Z,15.70
2023-05-08T01:10:03.549Z,15.80
2023-05-08T01:12:44.796Z,15.70
2023-05-08T01:15:17.375Z,15.80
2023-05-08T01:17:56.214Z,15.70
2023-05-08T01:20:35.817Z,15.70
2023-05-08T01:23:32.754Z,15.70
2023-05-08T01:26:31.603Z,15.70
2023-05-08T01:29:25.561Z,15.70
2023-05-08T01:32:15.488Z,15.70
2023-05-08T01:34:51.161Z,15.70
2023-05-08T01:37:27.156Z,15.70
2023-05-08T01:40:01.820Z,15.70
2023-05-08T01:42:40.499Z,15.80
2023-05-08T01:45:15.199Z,15.70
2023-05-08T01:47:48.528Z,15.70
2023-05-08T01:50:25.307Z,15.80
2023-05-08T01:53:01.784Z,15.80
2023-05-08T01:55:35.665Z,15.80
2023-05-08T01:58:07.993Z,15.80
2023-05-08T02:00:37.149Z,15.90
2023-05-08T02:03:09.323Z,15.90
2023-05-08T02:05:39.566Z,15.80
2023-05-08T02:08:09.670Z,15.80
2023-05-08T02:10:39.347Z,15.80
2023-05-08T02:13:10.252Z,15.80
2023-05-08T02:15:40.045Z,15.80
2023-05-08T02:18:11.355Z,15.80
2023-05-08T02:20:41.523Z,15.90
2023-05-08T02:23:10.478Z,15.90
2023-05-08T02:25:40.427Z,15.90
2023-05-08T02:28:09.396Z,15.80
2023-05-08T02:30:37.768Z,15.70
2023-05-08T02:33:09.362Z,15.70
2023-05-08T02:35:40.394Z,15.70
2023-05-08T02:38:11.700Z,15.70
2023-05-08T02:40:43.241Z,15.70
2023-05-08T02:43:11.711Z,15.70
2023-05-08T02:45:47.319Z,15.60
2023-05-08T02:48:23.800Z,15.70
2023-05-08T02:51:00.637Z,15.70
2023-05-08T02:53:35.510Z,15.70
2023-05-08T02:56:11.125Z,15.70
2023-05-08T02:58:45.370Z,15.80
2023-05-08T03:01:20.713Z,15.70
2023-05-08T03:04:00.648Z,15.70
2023-05-08T03:06:36.623Z,15.70
2023-05-08T03:09:06.528Z,15.70
2023-05-08T03:11:41.692Z,15.70
2023-05-08T03:14:15.064Z,15.70
2023-05-08T03:16:45.993Z,15.70
2023-05-08T03:19:22.354Z,15.70
2023-05-08T03:21:54.345Z,15.70
2023-05-08T03:24:24.833Z,15.70
2023-05-08T03:26:53.413Z,15.60
2023-05-08T03:29:23.171Z,15.60
2023-05-08T03:31:53.180Z,15.70
2023-05-08T03:34:22.914Z,15.70
2023-05-08T03:36:53.174Z,15.70
2023-05-08T03:39:21.337Z,15.70
2023-05-08T03:41:49.788Z,15.70
2023-05-08T03:44:19.074Z,15.70
2023-05-08T03:46:48.982Z,15.70
2023-05-08T03:49:18.754Z,15.70
2023-05-08T03:51:47.156Z,15.70
2023-05-08T03:54:16.586Z,15.70
2023-05-08T03:56:46.093Z,15.70
2023-05-08T03:59:22.804Z,15.70
2023-05-08T04:01:56.157Z,15.70
2023-05-08T04:04:31.588Z,15.70
2023-05-08T04:07:08.491Z,15.70
2023-05-08T04:09:44.124Z,15.80
2023-05-08T04:12:19.072Z,15.80
2023-05-08T04:14:52.339Z,15.80
2023-05-08T04:17:36.105Z,15.80
2023-05-08T04:20:08.185Z,15.90
2023-05-08T04:22:38.480Z,15.90
2023-05-08T04:25:10.289Z,15.90
2023-05-08T04:27:39.928Z,15.90
2023-05-08T04:30:10.434Z,15.80
2023-05-08T04:32:40.936Z,15.90
2023-05-08T04:35:10.884Z,15.90
2023-05-08T04:37:39.152Z,15.90
2023-05-08T04:40:10.776Z,15.90
2023-05-08T04:42:42.781Z,16.00
2023-05-08T04:45:12.074Z,16.00
2023-05-08T04:47:40.538Z,15.90
2023-05-08T04:50:09.441Z,15.90
2023-05-08T04:52:37.514Z,15.80
2023-05-08T04:55:06.322Z,15.90
2023-05-08T04:57:36.456Z,15.80
2023-05-08T05:00:05.108Z,15.80
2023-05-08T05:02:33.335Z,15.80
2023-05-08T05:05:02.132Z,15.90
2023-05-08T05:07:30.177Z,15.80
2023-05-08T05:09:58.602Z,15.80
2023-05-08T05:12:26.649Z,15.80
2023-05-08T05:14:56.242Z,15.80
2023-05-08T05:17:27.759Z,15.80
2023-05-08T05:19:56.020Z,15.90
2023-05-08T05:22:24.131Z,15.90
2023-05-08T05:24:53.039Z,15.90
2023-05-08T05:27:44.671Z,15.90
2023-05-08T05:30:36.112Z,15.90
2023-05-08T05:33:23.427Z,15.90
2023-05-08T05:36:09.221Z,15.90
2023-05-08T05:38:47.404Z,15.90
2023-05-08T05:41:22.522Z,15.90
2023-05-08T05:43:51.117Z,15.80
2023-05-08T05:46:32.630Z,15.80
2023-05-08T05:49:04.133Z,15.80
2023-05-08T05:51:34.727Z,15.80
2023-05-08T05:54:08.975Z,15.90
2023-05-08T05:56:39.872Z,15.90
2023-05-08T05:59:19.056Z,15.90
2023-05-08T06:01:51.685Z,15.90
2023-05-08T06:04:23.132Z,15.90
2023-05-08T06:06:51.176Z,16.00
2023-05-08T06:09:19.700Z,15.80
2023-05-08T06:11:53.096Z,15.70
2023-05-08T06:14:23.250Z,15.70
2023-05-08T06:16:52.821Z,15.80
2023-05-08T06:19:24.679Z,15.70
2023-05-08T06:21:53.020Z,15.70
2023-05-08T06:24:21.255Z,15.70
2023-05-08T06:26:52.043Z,15.60
2023-05-08T06:29:22.675Z,15.60
2023-05-08T06:32:04.556Z,15.60
2023-05-08T06:34:37.402Z,15.70
2023-05-08T06:37:08.599Z,15.80
2023-05-08T06:39:42.907Z,15.70
2023-05-08T06:42:22.556Z,15.70
2023-05-08T06:44:53.685Z,15.70
2023-05-08T06:47:23.279Z,15.70
2023-05-08T06:49:54.273Z,15.60
2023-05-08T06:52:25.668Z,15.60
2023-05-08T06:54:58.887Z,15.40
2023-05-08T06:57:29.256Z,15.40
2023-05-08T06:59:57.445Z,15.40
2023-05-08T07:02:31.158Z,15.40
2023-05-08T07:04:59.588Z,15.40
2023-05-08T07:07:28.175Z,15.40
2023-05-08T07:09:56.553Z,15.50
2023-05-08T07:12:43.872Z,15.50
2023-05-08T07:15:42.581Z,15.50
2023-05-08T07:18:12.959Z,15.50
2023-05-08T07:20:45.513Z,15.40
2023-05-08T07:23:13.831Z,15.40
2023-05-08T07:25:41.843Z,15.40
2023-05-08T07:28:12.840Z,15.30
2023-05-08T07:30:47.328Z,15.30
2023-05-08T07:33:26.545Z,15.40
2023-05-08T07:35:57.262Z,15.50
2023-05-08T07:38:27.206Z,15.60
2023-05-08T07:40:57.237Z,15.60
2023-05-08T07:43:28.497Z,15.70
2023-05-08T07:45:59.165Z,15.60
2023-05-08T07:48:30.919Z,15.70
2023-05-08T07:50:58.888Z,15.70
2023-05-08T07:53:27.480Z,15.80
2023-05-08T07:55:55.497Z,15.70
2023-05-08T07:58:24.023Z,15.70
2023-05-08T08:00:52.195Z,15.60
2023-05-08T08:03:20.219Z,15.60
2023-05-08T08:05:49.906Z,15.60
2023-05-08T08:08:17.931Z,15.60
2023-05-08T08:10:45.945Z,15.60
2023-05-08T08:13:14.354Z,15.70
2023-05-08T08:15:47.879Z,15.70
2023-05-08T08:18:16.096Z,15.70
2023-05-08T08:20:44.302Z,15.60
2023-05-08T08:23:13.820Z,15.70
2023-05-08T08:25:41.841Z,15.70
2023-05-08T08:28:09.898Z,15.80
2023-05-08T08:30:38.125Z,15.90
2023-05-08T08:33:06.783Z,15.90
2023-05-08T08:35:35.104Z,15.90
2023-05-08T08:38:03.120Z,15.90
2023-05-08T08:40:32.609Z,16.00
2023-05-08T08:43:00.709Z,15.90
2023-05-08T08:45:28.707Z,15.90
2023-05-08T08:48:01.923Z,16.00
2023-05-08T08:50:32.866Z,16.10
2023-05-08T08:53:08.753Z,16.20
2023-05-08T08:55:41.609Z,16.30
2023-05-08T08:58:18.116Z,16.40
2023-05-08T09:00:47.587Z,16.40
2023-05-08T09:03:16.621Z,16.40
2023-05-08T09:05:45.172Z,16.40
2023-05-08T09:08:14.116Z,16.30
2023-05-08T09:10:43.521Z,16.40
2023-05-08T09:13:11.476Z,16.30
2023-05-08T09:15:39.477Z,16.10
2023-05-08T09:18:07.489Z,16.20
2023-05-08T09:20:36.368Z,16.20
2023-05-08T09:23:04.693Z,16.10
2023-05-08T09:25:51.814Z,16.20
2023-05-08T09:28:20.754Z,16.40
2023-05-08T09:30:53.719Z,16.50
2023-05-08T09:33:23.201Z,16.60
2023-05-08T09:35:51.598Z,16.70
2023-05-08T09:38:35.103Z,16.80
2023-05-08T09:41:12.285Z,16.70
2023-05-08T09:43:40.494Z,16.70
2023-05-08T09:46:25.189Z,16.70
2023-05-08T09:48:54.824Z,16.70
2023-05-08T09:51:23.525Z,16.60
2023-05-08T09:53:53.143Z,16.70
2023-05-08T09:56:36.493Z,16.70
2023-05-08T09:59:06.475Z,16.80
2023-05-08T10:01:36.283Z,16.80
2023-05-08T10:04:06.076Z,16.80
2023-05-08T10:06:37.872Z,16.90
2023-05-08T10:09:13.959Z,16.80
2023-05-08T10:11:52.012Z,16.80
2023-05-08T10:14:20.935Z,16.90
2023-05-08T10:16:51.726Z,17.00
2023-05-08T10:19:21.172Z,17.00
2023-05-08T10:21:51.293Z,17.00
2023-05-08T10:24:20.758Z,17.20
2023-05-08T10:27:07.388Z,17.20
2023-05-08T10:29:43.630Z,17.20
2023-05-08T10:32:14.223Z,17.20
2023-05-08T10:34:42.968Z,17.20
2023-05-08T10:37:11.503Z,17.20
2023-05-08T10:39:43.555Z,17.20
2023-05-08T10:42:15.232Z,17.10
2023-05-08T10:44:43.259Z,17.10
2023-05-08T10:47:17.461Z,17.10
2023-05-08T10:49:58.617Z,17.10
2023-05-08T10:52:35.209Z,17.10
2023-05-08T10:55:17.702Z,17.00
2023-05-08T10:58:11.179Z,17.00
2023-05-08T11:01:13.500Z,17.00
2023-05-08T11:03:44.303Z,17.00
2023-05-08T11:06:13.159Z,17.00
2023-05-08T11:08:49.744Z,17.00
2023-05-08T11:11:31.492Z,17.00
2023-05-08T11:14:12.536Z,17.10
2023-05-08T11:17:09.243Z,17.20
2023-05-08T11:19:38.907Z,17.10
2023-05-08T11:22:34.215Z,17.00
2023-05-08T11:25:05.283Z,17.10
2023-05-08T11:28:05.632Z,17.10
2023-05-08T11:30:39.844Z,17.30
2023-05-08T11:33:18.360Z,17.20
2023-05-08T11:35:49.766Z,17.00
2023-05-08T11:38:19.814Z,17.10
2023-05-08T11:40:50.293Z,17.30
2023-05-08T11:43:59.681Z,17.30
2023-05-08T11:46:42.846Z,17.20
2023-05-08T11:49:16.546Z,17.20
2023-05-08T11:51:46.580Z,17.20
2023-05-08T11:54:16.575Z,17.30
2023-05-08T11:56:47.709Z,17.40
2023-05-08T11:59:16.953Z,17.50
2023-05-08T12:02:06.976Z,17.60
2023-05-08T12:04:45.433Z,17.40
2023-05-08T12:07:13.684Z,17.40
2023-05-08T12:09:41.786Z,17.40
2023-05-08T12:12:15.369Z,17.40
2023-05-08T12:14:43.467Z,17.50
2023-05-08T12:17:23.613Z,17.60
2023-05-08T12:19:57.020Z,17.70
2023-05-08T12:22:25.314Z,17.70
2023-05-08T12:27:45.994Z,18.00
2023-05-08T12:30:16.491Z,18.10
2023-05-08T12:32:50.556Z,18.30
2023-05-08T12:35:24.465Z,18.40
2023-05-08T12:37:53.468Z,18.40
2023-05-08T12:40:27.935Z,18.40
2023-05-08T12:42:56.174Z,18.40
2023-05-08T12:45:28.632Z,18.50
2023-05-08T12:48:01.490Z,18.50
2023-05-08T12:50:32.894Z,18.60
2023-05-08T12:53:04.858Z,18.60
2023-05-08T12:55:34.924Z,18.50
2023-05-08T12:58:05.583Z,18.50
2023-05-08T13:00:41.936Z,18.60
2023-05-08T13:03:27.290Z,18.50
2023-05-08T13:05:56.357Z,18.60
2023-05-08T13:08:31.235Z,18.70
2023-05-08T13:11:00.126Z,18.80
2023-05-08T13:13:34.043Z,18.90
2023-05-08T13:16:04.803Z,19.10
2023-05-08T13:18:36.180Z,19.60
2023-05-08T13:21:04.390Z,20.20
2023-05-08T13:23:32.307Z,20.80
2023-05-08T13:26:00.441Z,21.10
2023-05-08T13:28:28.456Z,21.00
2023-05-08T13:30:59.737Z,20.80
2023-05-08T13:33:27.792Z,20.60
2023-05-08T13:35:57.095Z,20.60
2023-05-08T13:38:25.078Z,20.60
2023-05-08T13:40:53.044Z,20.70
2023-05-08T13:43:23.432Z,20.70
2023-05-08T13:45:51.678Z,20.70
2023-05-08T13:48:19.743Z,20.70
2023-05-08T13:51:09.441Z,20.70
2023-05-08T13:53:39.280Z,20.40
2023-05-08T13:56:07.535Z,20.00
2023-05-08T13:58:35.561Z,20.00
2023-05-08T14:01:17.668Z,20.10
2023-05-08T14:03:52.015Z,20.10
2023-05-08T14:06:20.486Z,19.90
2023-05-08T14:08:52.300Z,19.90
2023-05-08T14:11:23.703Z,19.90
2023-05-08T14:13:51.883Z,19.90
2023-05-08T14:16:19.891Z,20.00
2023-05-08T14:18:47.984Z,19.80
2023-05-08T14:21:15.951Z,19.90
2023-05-08T14:23:45.032Z,20.00
2023-05-08T14:26:14.509Z,19.90
2023-05-08T14:28:42.690Z,19.80
2023-05-08T14:31:10.827Z,19.50
2023-05-08T14:33:38.925Z,19.40
2023-05-08T14:36:07.574Z,19.30
2023-05-08T14:38:35.604Z,19.30
2023-05-08T14:41:04.956Z,19.50
2023-05-08T14:43:34.552Z,19.50
2023-05-08T14:46:02.664Z,19.30
2023-05-08T14:48:30.721Z,19.30
2023-05-08T14:50:58.682Z,19.40
2023-05-08T14:53:26.857Z,19.50
2023-05-08T14:55:55.131Z,19.60
2023-05-08T14:58:23.680Z,19.80
2023-05-08T15:00:53.248Z,19.90
2023-05-08T15:03:21.483Z,19.90
2023-05-08T15:05:49.668Z,20.00
2023-05-08T15:08:17.817Z,20.20
2023-05-08T15:10:46.020Z,20.40
2023-05-08T15:13:14.145Z,20.50
2023-05-08T15:15:42.249Z,20.70
2023-05-08T15:18:11.638Z,20.90
2023-05-08T15:20:39.677Z,21.00
2023-05-08T15:23:07.734Z,21.00
2023-05-08T15:25:36.101Z,21.10
2023-05-08T15:28:04.249Z,21.10
2023-05-08T15:30:32.312Z,21.10
2023-05-08T15:33:00.436Z,21.10
2023-05-08T15:35:30.197Z,21.00
2023-05-08T15:37:58.236Z,20.80
2023-05-08T15:40:26.191Z,20.80
2023-05-08T15:42:54.175Z,20.80
2023-05-08T15:45:22.342Z,20.80
2023-05-08T15:47:50.416Z,20.80
2023-05-08T15:50:18.437Z,20.80
2023-05-08T15:52:47.868Z,20.80
2023-05-08T15:55:17.549Z,20.90
2023-05-08T15:57:45.522Z,21.00
2023-05-08T16:00:14.882Z,21.00
2023-05-08T16:02:43.190Z,21.10
2023-05-08T16:05:11.905Z,21.00
2023-05-08T16:07:40.349Z,20.90
2023-05-08T16:10:11.204Z,20.80
2023-05-08T16:12:39.260Z,20.70
2023-05-08T16:15:07.884Z,20.70
2023-05-08T16:17:36.027Z,20.90
2023-05-08T16:20:04.406Z,20.90
2023-05-08T16:22:44.642Z,21.00
2023-05-08T16:25:19.367Z,21.00
2023-05-08T16:27:56.754Z,20.90
2023-05-08T16:30:27.300Z,20.90
2023-05-08T16:32:55.356Z,20.90
2023-05-08T16:35:42.411Z,20.90
2023-05-08T16:38:15.721Z,20.90
2023-05-08T16:40:55.267Z,20.80
2023-05-08T16:43:23.429Z,20.60
2023-05-08T16:45:58.688Z,20.50
2023-05-08T16:48:28.855Z,20.40
2023-05-08T16:50:59.293Z,20.30
2023-05-08T16:53:34.121Z,20.30
2023-05-08T16:56:14.692Z,20.20
2023-05-08T16:58:49.467Z,20.30
2023-05-08T17:01:21.961Z,20.40
2023-05-08T17:03:53.193Z,20.40
2023-05-08T17:06:27.247Z,20.40
2023-05-08T17:09:04.744Z,20.40
2023-05-08T17:11:34.235Z,20.50
2023-05-08T17:14:02.224Z,20.60
2023-05-08T17:16:30.293Z,20.80
2023-05-08T17:18:59.650Z,20.90
2023-05-08T17:21:27.742Z,20.90
2023-05-08T17:23:55.681Z,20.80
2023-05-08T17:26:24.342Z,20.80
2023-05-08T17:28:53.933Z,20.70
2023-05-08T17:31:21.947Z,20.60
2023-05-08T17:33:49.980Z,20.50
2023-05-08T17:36:18.000Z,20.40
2023-05-08T17:38:47.235Z,20.30
2023-05-08T17:41:15.982Z,20.10
2023-05-08T17:43:46.239Z,20.00
2023-05-08T17:46:18.411Z,19.70
2023-05-08T17:48:46.308Z,19.50
2023-05-08T17:51:14.758Z,19.50
2023-05-08T17:53:58.352Z,19.40
2023-05-08T17:56:26.695Z,19.30
2023-05-08T17:58:55.681Z,19.30
2023-05-08T18:01:26.098Z,19.30
2023-05-08T18:03:54.719Z,19.30
2023-05-08T18:06:23.130Z,19.30
2023-05-08T18:08:51.235Z,19.30
2023-05-08T18:11:20.341Z,19.30
2023-05-08T18:13:48.551Z,19.10
2023-05-08T18:16:19.076Z,19.00
2023-05-08T18:18:49.421Z,19.00
2023-05-08T18:21:17.907Z,18.90
2023-05-08T18:23:46.062Z,18.80
2023-05-08T18:26:15.513Z,18.70
2023-05-08T18:28:43.662Z,18.60
2023-05-08T18:31:12.229Z,18.50
2023-05-08T18:33:40.545Z,18.40
2023-05-08T18:36:10.314Z,18.30
2023-05-08T18:38:38.439Z,18.20
2023-05-08T18:41:06.757Z,18.10
2023-05-08T18:43:35.152Z,18.00
2023-05-08T18:46:09.631Z,17.90
2023-05-08T18:48:37.907Z,17.80
2023-05-08T18:51:06.308Z,17.60
2023-05-08T18:53:38.456Z,17.60
2023-05-08T18:56:06.792Z,17.50
2023-05-08T18:58:35.265Z,17.50
2023-05-08T19:01:03.447Z,17.40
2023-05-08T19:03:31.746Z,17.30
2023-05-08T19:06:00.164Z,17.30
2023-05-08T19:08:28.492Z,17.30
2023-05-08T19:10:58.159Z,17.30
2023-05-08T19:13:26.838Z,17.40
2023-05-08T19:15:55.052Z,17.30
2023-05-08T19:18:23.489Z,17.30
2023-05-08T19:20:51.734Z,17.30
2023-05-08T19:23:19.910Z,17.30
2023-05-08T19:25:48.151Z,17.20
2023-05-08T19:28:17.786Z,17.20
2023-05-08T19:30:46.077Z,17.20
2023-05-08T19:33:14.611Z,17.20
2023-05-08T19:35:42.861Z,17.20
2023-05-08T19:38:10.988Z,17.20
2023-05-08T19:40:54.941Z,17.20
2023-05-08T19:43:26.870Z,17.20
2023-05-08T19:45:56.387Z,17.30
2023-05-08T19:48:24.751Z,17.30
2023-05-08T19:50:54.859Z,17.30
2023-05-08T19:53:23.482Z,17.30
2023-05-08T19:55:52.000Z,17.20
2023-05-08T19:58:20.234Z,17.20
2023-05-08T20:00:51.540Z,17.20
2023-05-08T20:03:20.495Z,17.10
2023-05-08T20:05:48.894Z,17.20
2023-05-08T20:08:17.153Z,17.20
2023-05-08T20:10:46.063Z,17.20
2023-05-08T20:13:14.333Z,17.20
2023-05-08T20:15:42.620Z,17.10
2023-05-08T20:18:12.242Z,17.10
2023-05-08T20:20:40.418Z,17.10
2023-05-08T20:23:08.534Z,17.10
2023-05-08T20:25:36.745Z,17.10
2023-05-08T20:28:05.008Z,17.10
2023-05-08T20:30:33.176Z,17.00
2023-05-08T20:33:05.016Z,17.00
2023-05-08T20:35:35.495Z,17.00
2023-05-08T20:38:03.749Z,16.90
2023-05-08T20:40:32.033Z,16.90
2023-05-08T20:43:00.125Z,16.90
2023-05-08T20:45:28.385Z,16.90
2023-05-08T20:47:56.555Z,16.90
2023-05-08T20:50:24.687Z,16.90
2023-05-08T20:52:54.363Z,16.90
2023-05-08T20:55:22.823Z,16.90
2023-05-08T20:57:50.944Z,16.90
2023-05-08T21:00:19.763Z,16.90
2023-05-08T21:02:47.977Z,16.90
2023-05-08T21:05:16.427Z,16.90
2023-05-08T21:07:44.784Z,16.80
2023-05-08T21:10:16.506Z,16.80
2023-05-08T21:12:45.526Z,16.80
2023-05-08T21:15:14.070Z,16.80
2023-05-08T21:17:42.448Z,16.80
2023-05-08T21:20:11.747Z,16.70
2023-05-08T21:22:40.107Z,16.70
2023-05-08T21:25:09.140Z,16.70
2023-05-08T21:27:38.682Z,16.70
2023-05-08T21:30:08.170Z,16.70
2023-05-08T21:32:36.227Z,16.70
2023-05-08T21:35:04.638Z,16.60
2023-05-08T21:37:32.961Z,16.60
2023-05-08T21:40:00.984Z,16.70
2023-05-08T21:42:28.969Z,16.60
2023-05-08T21:44:58.707Z,16.60
2023-05-08T21:47:28.310Z,16.60
2023-05-08T21:49:57.281Z,16.60
2023-05-08T21:52:26.117Z,16.60
2023-05-08T21:54:54.435Z,16.60
2023-05-08T21:57:22.747Z,16.50
2023-05-08T21:59:51.137Z,16.50
2023-05-08T22:02:21.078Z,16.50
2023-05-08T22:04:49.272Z,16.40
2023-05-08T22:07:17.300Z,16.30
2023-05-08T22:09:45.410Z,16.30
2023-05-08T22:12:13.555Z,16.20
2023-05-08T22:14:41.585Z,16.20
2023-05-08T22:17:09.633Z,16.20
2023-05-08T22:19:39.116Z,16.10
2023-05-08T22:22:07.289Z,16.10
2023-05-08T22:24:35.513Z,16.10
2023-05-08T22:27:03.614Z,16.10
2023-05-08T22:29:31.573Z,16.00
2023-05-08T22:31:59.630Z,16.00
2023-05-08T22:34:27.598Z,15.90
2023-05-08T22:36:56.977Z,15.90
2023-05-08T22:39:24.924Z,15.90
2023-05-08T22:41:52.898Z,15.90
2023-05-08T22:44:21.010Z,15.80
2023-05-08T22:46:49.268Z,15.80
2023-05-08T22:49:17.468Z,15.70
2023-05-08T22:51:45.518Z,15.60
2023-05-08T22:54:14.919Z,15.60
2023-05-08T22:56:42.914Z,15.60
2023-05-08T22:59:10.957Z,15.60
2023-05-08T23:01:39.131Z,15.60
2023-05-08T23:04:07.247Z,15.60
2023-05-08T23:06:35.907Z,15.60
2023-05-08T23:09:04.706Z,15.60
2023-05-08T23:11:34.046Z,15.60
2023-05-08T23:14:01.951Z,15.60
2023-05-08T23:16:29.835Z,15.60
2023-05-08T23:18:57.785Z,15.70
2023-05-08T23:21:25.671Z,15.70
2023-05-08T23:23:54.266Z,15.80
2023-05-08T23:26:22.240Z,15.80
2023-05-08T23:28:51.565Z,15.80
2023-05-08T23:31:19.763Z,15.80
2023-05-08T23:33:47.713Z,15.80
2023-05-08T23:36:16.667Z,15.80
2023-05-08T23:38:44.612Z,15.70
2023-05-08T23:41:13.050Z,15.70
2023-05-08T23:43:40.914Z,15.70
2023-05-08T23:46:10.157Z,15.70
2023-05-08T23:48:38.159Z,15.70
2023-05-08T23:51:06.429Z,15.60
2023-05-08T23:53:34.383Z,15.60
2023-05-08T23:56:02.297Z,15.50
2023-05-08T23:58:30.152Z,15.50
